■掲示板に戻る■ レスを全部読む 最新レス50
函館市スレッド★102
187 名前: なまら名無し 投稿日: 2017/01/10(火) 04:19:38 ID:c+I+ZCKw
>>184>>186
函館空港気象予報
飛行場予報(TAF)
発表時間: 1/10 02:11 JST (1/09 17:11 UTC)
予報対象時間: 10日3時 JST 〜 11日9時 JST
風向・風速 西北西 7m/s
視程 10km以上
雲 少しの雲 雲底高度 460m
全天の8割程度の雲 雲底高度 910m
10日10時 JST 〜 10日12時 JST に一時的に
視程 3,000m
天気現象 弱いしゅう雪
10日12時 JST 〜 10日21時 JST に一時的に
視程 700m
天気現象 しゅう雪
雲 全天を覆う雲 鉛直視程 150m
10日21時 JST 〜 11日6時 JST に一時的に
視程 500m
天気現象 しゅう雪
雲 全天を覆う雲 鉛直視程 90m
11日6時 JST 〜 11日9時 JST に一時的に
風向・風速 西北西 9m/s 瞬間風速 14m/s
視程 500m
天気現象 しゅう雪
雲 全天を覆う雲 鉛直視程 90m
TAF RJCH 091711Z 0918/1024 29014KT 9999 FEW015 BKN030
TEMPO 1001/1003 3000 -SHSN
TEMPO 1003/1012 0700 SHSN VV005
TEMPO 1012/1021 0500 SHSN VV003
TEMPO 1021/1024 29017G27KT 0500 SHSN VV003

read.cgi V2.1(PC) 2013/05